sensor_id;sensor_type;location;lat;lon;timestamp;pressure;altitude;pressure_sealevel;temperature;humidity
43217;BME280;60511;42.686;23.300;2023-06-14T00:00:22;94425.34;;;26.03;41.00
43217;BME280;60511;42.686;23.300;2023-06-14T00:02:22;94429.97;;;25.99;41.07
43217;BME280;60511;42.686;23.300;2023-06-14T00:04:22;94429.16;;;25.99;41.03
43217;BME280;60511;42.686;23.300;2023-06-14T00:06:25;94431.09;;;25.98;40.98
43217;BME280;60511;42.686;23.300;2023-06-14T00:08:25;94416.00;;;25.97;41.10
43217;BME280;60511;42.686;23.300;2023-06-14T00:10:26;94418.72;;;25.97;41.03
43217;BME280;60511;42.686;23.300;2023-06-14T00:12:30;94423.34;;;25.97;41.11
43217;BME280;60511;42.686;23.300;2023-06-14T00:14:31;94412.13;;;25.98;40.93
43217;BME280;60511;42.686;23.300;2023-06-14T00:16:31;94411.00;;;25.99;40.97
43217;BME280;60511;42.686;23.300;2023-06-14T00:18:33;94408.28;;;25.99;40.94
43217;BME280;60511;42.686;23.300;2023-06-14T00:20:34;94413.69;;;25.99;40.96
43217;BME280;60511;42.686;23.300;2023-06-14T00:22:34;94416.00;;;26.01;40.90
43217;BME280;60511;42.686;23.300;2023-06-14T00:24:36;94414.06;;;25.98;41.04
43217;BME280;60511;42.686;23.300;2023-06-14T00:26:36;94407.88;;;25.97;41.02
43217;BME280;60511;42.686;23.300;2023-06-14T00:28:37;94409.41;;;25.98;41.10
43217;BME280;60511;42.686;23.300;2023-06-14T00:30:37;94405.94;;;25.98;40.84
43217;BME280;60511;42.686;23.300;2023-06-14T00:32:37;94408.66;;;25.98;40.82
43217;BME280;60511;42.686;23.300;2023-06-14T00:34:38;94404.41;;;26.00;40.92
43217;BME280;60511;42.686;23.300;2023-06-14T00:36:38;94404.00;;;25.98;40.97
43217;BME280;60511;42.686;23.300;2023-06-14T00:38:38;94409.41;;;25.98;41.02
43217;BME280;60511;42.686;23.300;2023-06-14T00:40:39;94397.78;;;25.98;40.84
43217;BME280;60511;42.686;23.300;2023-06-14T00:42:39;94399.34;;;25.99;41.03
43217;BME280;60511;42.686;23.300;2023-06-14T00:44:39;94404.03;;;26.02;40.88
43217;BME280;60511;42.686;23.300;2023-06-14T00:46:40;94398.56;;;25.98;40.89
43217;BME280;60511;42.686;23.300;2023-06-14T00:48:40;94400.13;;;25.99;40.89
43217;BME280;60511;42.686;23.300;2023-06-14T00:50:41;94390.06;;;26.00;40.89
43217;BME280;60511;42.686;23.300;2023-06-14T00:52:41;94390.44;;;25.98;41.10
43217;BME280;60511;42.686;23.300;2023-06-14T00:54:42;94395.09;;;25.98;41.03
43217;BME280;60511;42.686;23.300;2023-06-14T00:56:43;94393.91;;;25.99;41.09
43217;BME280;60511;42.686;23.300;2023-06-14T00:58:43;94392.00;;;25.99;41.06
43217;BME280;60511;42.686;23.300;2023-06-14T01:00:44;94392.38;;;25.98;40.94
43217;BME280;60511;42.686;23.300;2023-06-14T01:02:44;94392.78;;;26.00;40.86
43217;BME280;60511;42.686;23.300;2023-06-14T01:04:45;94388.50;;;25.99;41.02
43217;BME280;60511;42.686;23.300;2023-06-14T01:06:54;94398.19;;;26.00;40.97
43217;BME280;60511;42.686;23.300;2023-06-14T01:11:02;94388.88;;;25.97;41.07
43217;BME280;60511;42.686;23.300;2023-06-14T01:15:05;94384.28;;;26.01;40.91
43217;BME280;60511;42.686;23.300;2023-06-14T01:17:07;94386.97;;;26.01;40.98
43217;BME280;60511;42.686;23.300;2023-06-14T01:19:15;94390.44;;;25.98;40.97
43217;BME280;60511;42.686;23.300;2023-06-14T01:21:22;94389.66;;;25.98;40.95
43217;BME280;60511;42.686;23.300;2023-06-14T01:23:24;94385.41;;;26.00;41.09
43217;BME280;60511;42.686;23.300;2023-06-14T01:25:25;94390.84;;;26.00;40.82
43217;BME280;60511;42.686;23.300;2023-06-14T01:27:26;94390.44;;;25.98;40.90
43217;BME280;60511;42.686;23.300;2023-06-14T01:29:29;94386.59;;;25.99;41.09
43217;BME280;60511;42.686;23.300;2023-06-14T01:31:32;94382.66;;;25.97;40.91
43217;BME280;60511;42.686;23.300;2023-06-14T01:33:41;94382.69;;;26.00;41.02
43217;BME280;60511;42.686;23.300;2023-06-14T01:35:45;94381.16;;;25.99;40.81
43217;BME280;60511;42.686;23.300;2023-06-14T01:37:47;94387.72;;;25.98;41.08
43217;BME280;60511;42.686;23.300;2023-06-14T01:39:47;94381.94;;;26.00;40.99
43217;BME280;60511;42.686;23.300;2023-06-14T01:41:49;94386.59;;;26.03;40.81
43217;BME280;60511;42.686;23.300;2023-06-14T01:43:50;94392.78;;;26.00;41.07
43217;BME280;60511;42.686;23.300;2023-06-14T01:45:52;94394.31;;;26.01;40.86
43217;BME280;60511;42.686;23.300;2023-06-14T01:47:53;94393.16;;;25.98;40.94
43217;BME280;60511;42.686;23.300;2023-06-14T01:49:55;94395.09;;;25.98;41.03
43217;BME280;60511;42.686;23.300;2023-06-14T01:51:55;94389.28;;;25.99;40.95
43217;BME280;60511;42.686;23.300;2023-06-14T01:53:55;94394.31;;;26.01;40.95
43217;BME280;60511;42.686;23.300;2023-06-14T01:55:57;94388.91;;;26.01;40.99
43217;BME280;60511;42.686;23.300;2023-06-14T01:57:58;94398.97;;;26.00;40.93
43217;BME280;60511;42.686;23.300;2023-06-14T01:59:58;94402.47;;;26.01;40.88
43217;BME280;60511;42.686;23.300;2023-06-14T02:01:59;94403.25;;;26.01;40.81
43217;BME280;60511;42.686;23.300;2023-06-14T02:03:59;94405.94;;;25.98;41.11
43217;BME280;60511;42.686;23.300;2023-06-14T02:05:59;94405.53;;;25.96;40.91
43217;BME280;60511;42.686;23.300;2023-06-14T02:08:00;94405.94;;;25.98;41.11
43217;BME280;60511;42.686;23.300;2023-06-14T02:10:00;94410.94;;;25.96;41.13
43217;BME280;60511;42.686;23.300;2023-06-14T02:12:01;94414.84;;;25.98;41.02
43217;BME280;60511;42.686;23.300;2023-06-14T02:14:01;94415.59;;;25.99;40.99
43217;BME280;60511;42.686;23.300;2023-06-14T02:16:02;94418.72;;;25.97;40.87
43217;BME280;60511;42.686;23.300;2023-06-14T02:18:02;94414.44;;;25.96;40.85
43217;BME280;60511;42.686;23.300;2023-06-14T02:20:03;94415.59;;;25.95;41.13
43217;BME280;60511;42.686;23.300;2023-06-14T02:22:05;94424.88;;;25.94;40.91
43217;BME280;60511;42.686;23.300;2023-06-14T02:24:05;94422.94;;;25.95;41.06
43217;BME280;60511;42.686;23.300;2023-06-14T02:26:06;94430.72;;;25.96;40.85
43217;BME280;60511;42.686;23.300;2023-06-14T02:28:06;94421.03;;;25.99;40.84
43217;BME280;60511;42.686;23.300;2023-06-14T02:30:06;94425.31;;;26.00;40.82
43217;BME280;60511;42.686;23.300;2023-06-14T02:32:07;94420.25;;;25.98;40.95
43217;BME280;60511;42.686;23.300;2023-06-14T02:34:07;94428.00;;;25.96;40.99
43217;BME280;60511;42.686;23.300;2023-06-14T02:36:10;94428.41;;;25.98;40.81
43217;BME280;60511;42.686;23.300;2023-06-14T02:38:11;94424.16;;;26.01;40.86
43217;BME280;60511;42.686;23.300;2023-06-14T02:40:11;94418.72;;;25.97;41.08
43217;BME280;60511;42.686;23.300;2023-06-14T02:42:13;94420.25;;;25.98;41.04
43217;BME280;60511;42.686;23.300;2023-06-14T02:44:13;94417.59;;;26.02;40.89
43217;BME280;60511;42.686;23.300;2023-06-14T02:46:14;94412.13;;;25.98;41.02
43217;BME280;60511;42.686;23.300;2023-06-14T02:48:15;94414.44;;;25.96;40.91
43217;BME280;60511;42.686;23.300;2023-06-14T02:50:15;94409.00;;;25.96;41.04
43217;BME280;60511;42.686;23.300;2023-06-14T02:52:16;94412.50;;;25.97;40.98
43217;BME280;60511;42.686;23.300;2023-06-14T02:54:16;94408.66;;;25.98;41.11
43217;BME280;60511;42.686;23.300;2023-06-14T02:56:16;94419.13;;;25.99;40.80
43217;BME280;60511;42.686;23.300;2023-06-14T02:58:19;94421.84;;;25.99;40.88
43217;BME280;60511;42.686;23.300;2023-06-14T03:00:19;94416.00;;;25.97;40.81
43217;BME280;60511;42.686;23.300;2023-06-14T03:02:20;94422.19;;;25.98;41.01
43217;BME280;60511;42.686;23.300;2023-06-14T03:04:20;94421.44;;;25.97;40.89
43217;BME280;60511;42.686;23.300;2023-06-14T03:06:20;94418.72;;;25.97;40.83
43217;BME280;60511;42.686;23.300;2023-06-14T03:08:25;94428.75;;;25.97;40.92
43217;BME280;60511;42.686;23.300;2023-06-14T03:10:27;94424.16;;;26.01;40.97
43217;BME280;60511;42.686;23.300;2023-06-14T03:12:29;94430.38;;;26.01;40.81
43217;BME280;60511;42.686;23.300;2023-06-14T03:14:29;94434.63;;;26.02;40.66
43217;BME280;60511;42.686;23.300;2023-06-14T03:16:30;94437.72;;;26.01;40.93
43217;BME280;60511;42.686;23.300;2023-06-14T03:18:31;94435.00;;;25.97;40.88
43217;BME280;60511;42.686;23.300;2023-06-14T03:20:35;94440.41;;;25.97;40.91
43217;BME280;60511;42.686;23.300;2023-06-14T03:22:35;94446.59;;;25.98;40.94
43217;BME280;60511;42.686;23.300;2023-06-14T03:24:36;94446.97;;;25.96;40.88
43217;BME280;60511;42.686;23.300;2023-06-14T03:26:36;94438.47;;;25.98;40.84
43217;BME280;60511;42.686;23.300;2023-06-14T03:28:37;94444.25;;;25.96;40.95
43217;BME280;60511;42.686;23.300;2023-06-14T03:30:37;94441.19;;;25.98;40.91
43217;BME280;60511;42.686;23.300;2023-06-14T03:32:37;94441.16;;;25.94;40.91
43217;BME280;60511;42.686;23.300;2023-06-14T03:34:38;94448.88;;;25.92;40.97
43217;BME280;60511;42.686;23.300;2023-06-14T03:36:38;94457.81;;;25.96;40.87
43217;BME280;60511;42.686;23.300;2023-06-14T03:38:39;94449.69;;;25.96;40.99
43217;BME280;60511;42.686;23.300;2023-06-14T03:40:39;94446.19;;;25.96;40.93
43217;BME280;60511;42.686;23.300;2023-06-14T03:42:40;94443.44;;;25.92;41.12
43217;BME280;60511;42.686;23.300;2023-06-14T03:44:41;94452.00;;;25.94;40.95
43217;BME280;60511;42.686;23.300;2023-06-14T03:46:41;94452.75;;;25.95;40.96
43217;BME280;60511;42.686;23.300;2023-06-14T03:48:41;94450.84;;;25.95;40.88
43217;BME280;60511;42.686;23.300;2023-06-14T03:50:42;94448.50;;;25.94;40.87
43217;BME280;60511;42.686;23.300;2023-06-14T03:52:43;94452.75;;;25.95;40.99
43217;BME280;60511;42.686;23.300;2023-06-14T03:54:43;94452.75;;;25.95;40.91
43217;BME280;60511;42.686;23.300;2023-06-14T03:56:44;94460.53;;;25.96;40.99
43217;BME280;60511;42.686;23.300;2023-06-14T03:58:45;94452.41;;;25.96;40.89
43217;BME280;60511;42.686;23.300;2023-06-14T04:00:46;94452.00;;;25.94;40.90
43217;BME280;60511;42.686;23.300;2023-06-14T04:02:46;94454.75;;;25.98;40.91
43217;BME280;60511;42.686;23.300;2023-06-14T04:04:47;94459.00;;;25.95;41.03
43217;BME280;60511;42.686;23.300;2023-06-14T04:06:48;94457.47;;;25.98;40.94
43217;BME280;60511;42.686;23.300;2023-06-14T04:08:50;94453.16;;;25.97;40.88
43217;BME280;60511;42.686;23.300;2023-06-14T04:10:50;94462.47;;;25.96;40.95
43217;BME280;60511;42.686;23.300;2023-06-14T04:12:51;94460.56;;;26.00;40.87
43217;BME280;60511;42.686;23.300;2023-06-14T04:14:51;94450.47;;;25.97;40.88
43217;BME280;60511;42.686;23.300;2023-06-14T04:16:52;94452.81;;;25.98;40.93
43217;BME280;60511;42.686;23.300;2023-06-14T04:18:53;94445.84;;;26.01;40.78
43217;BME280;60511;42.686;23.300;2023-06-14T04:20:55;94452.44;;;26.00;40.95
43217;BME280;60511;42.686;23.300;2023-06-14T04:22:56;94452.41;;;25.96;41.01
43217;BME280;60511;42.686;23.300;2023-06-14T04:24:57;94455.50;;;25.98;40.88
43217;BME280;60511;42.686;23.300;2023-06-14T04:27:00;94458.22;;;25.98;40.95
43217;BME280;60511;42.686;23.300;2023-06-14T04:29:03;94453.97;;;26.01;40.83
43217;BME280;60511;42.686;23.300;2023-06-14T04:31:03;94458.22;;;25.98;40.74
43217;BME280;60511;42.686;23.300;2023-06-14T04:33:04;94457.88;;;26.00;40.94
43217;BME280;60511;42.686;23.300;2023-06-14T04:35:06;94462.09;;;25.97;40.95
43217;BME280;60511;42.686;23.300;2023-06-14T04:37:07;94451.66;;;25.99;40.90
43217;BME280;60511;42.686;23.300;2023-06-14T04:39:08;94450.09;;;25.98;40.97
43217;BME280;60511;42.686;23.300;2023-06-14T04:41:08;94452.41;;;25.96;40.84
43217;BME280;60511;42.686;23.300;2023-06-14T04:43:11;94456.69;;;25.97;40.84
43217;BME280;60511;42.686;23.300;2023-06-14T04:45:15;94460.13;;;25.94;41.15
43217;BME280;60511;42.686;23.300;2023-06-14T04:47:16;94455.47;;;25.95;40.92
43217;BME280;60511;42.686;23.300;2023-06-14T04:49:17;94452.00;;;25.94;41.03
43217;BME280;60511;42.686;23.300;2023-06-14T04:51:17;94459.00;;;25.95;40.97
43217;BME280;60511;42.686;23.300;2023-06-14T04:53:21;94463.25;;;25.96;40.98
43217;BME280;60511;42.686;23.300;2023-06-14T04:55:22;94466.31;;;25.95;40.92
43217;BME280;60511;42.686;23.300;2023-06-14T04:57:23;94466.31;;;25.95;40.97
43217;BME280;60511;42.686;23.300;2023-06-14T04:59:25;94462.84;;;25.94;41.04
43217;BME280;60511;42.686;23.300;2023-06-14T05:01:25;94464.00;;;25.93;41.04
43217;BME280;60511;42.686;23.300;2023-06-14T05:03:26;94472.91;;;25.94;41.26
43217;BME280;60511;42.686;23.300;2023-06-14T05:05:27;94473.69;;;25.94;40.92
43217;BME280;60511;42.686;23.300;2023-06-14T05:07:27;94472.13;;;25.93;41.11
43217;BME280;60511;42.686;23.300;2023-06-14T05:09:28;94478.34;;;25.94;41.00
43217;BME280;60511;42.686;23.300;2023-06-14T05:11:28;94477.97;;;25.95;40.86
43217;BME280;60511;42.686;23.300;2023-06-14T05:13:28;94469.84;;;25.95;41.09
43217;BME280;60511;42.686;23.300;2023-06-14T05:15:29;94483.41;;;25.95;40.99
43217;BME280;60511;42.686;23.300;2023-06-14T05:17:29;94469.84;;;25.95;41.02
43217;BME280;60511;42.686;23.300;2023-06-14T05:19:29;94477.16;;;25.95;41.05
43217;BME280;60511;42.686;23.300;2023-06-14T05:21:30;94476.41;;;25.94;41.19
43217;BME280;60511;42.686;23.300;2023-06-14T05:23:32;94483.00;;;25.97;41.05
43217;BME280;60511;42.686;23.300;2023-06-14T05:25:32;94489.22;;;25.97;41.05
43217;BME280;60511;42.686;23.300;2023-06-14T05:27:32;94489.22;;;25.97;41.10
43217;BME280;60511;42.686;23.300;2023-06-14T05:29:35;94498.91;;;25.98;40.96
43217;BME280;60511;42.686;23.300;2023-06-14T05:31:36;94493.84;;;25.97;41.08
43217;BME280;60511;42.686;23.300;2023-06-14T05:33:36;94503.56;;;25.98;40.95
43217;BME280;60511;42.686;23.300;2023-06-14T05:35:37;94503.16;;;25.96;41.08
43217;BME280;60511;42.686;23.300;2023-06-14T05:37:38;94498.50;;;25.96;41.08
43217;BME280;60511;42.686;23.300;2023-06-14T05:39:38;94500.81;;;25.94;41.10
43217;BME280;60511;42.686;23.300;2023-06-14T05:41:38;94503.16;;;25.96;41.04
43217;BME280;60511;42.686;23.300;2023-06-14T05:43:39;94500.81;;;25.94;41.16
43217;BME280;60511;42.686;23.300;2023-06-14T05:45:39;94506.28;;;25.98;41.11
43217;BME280;60511;42.686;23.300;2023-06-14T05:47:40;94502.38;;;25.95;40.92
43217;BME280;60511;42.686;23.300;2023-06-14T05:49:40;94508.97;;;25.98;41.01
43217;BME280;60511;42.686;23.300;2023-06-14T05:51:40;94515.19;;;25.98;41.08
43217;BME280;60511;42.686;23.300;2023-06-14T05:53:41;94506.63;;;25.96;41.06
43217;BME280;60511;42.686;23.300;2023-06-14T05:55:41;94508.97;;;25.98;41.08
43217;BME280;60511;42.686;23.300;2023-06-14T05:57:41;94512.81;;;25.97;41.07
43217;BME280;60511;42.686;23.300;2023-06-14T05:59:41;94510.50;;;25.95;41.02
43217;BME280;60511;42.686;23.300;2023-06-14T06:01:42;94510.13;;;25.97;41.14
43217;BME280;60511;42.686;23.300;2023-06-14T06:03:42;94515.53;;;25.97;41.10
43217;BME280;60511;42.686;23.300;2023-06-14T06:05:45;94509.75;;;25.98;41.10
43217;BME280;60511;42.686;23.300;2023-06-14T06:07:46;94520.66;;;26.02;40.88
43217;BME280;60511;42.686;23.300;2023-06-14T06:09:46;94511.34;;;26.03;40.88
43217;BME280;60511;42.686;23.300;2023-06-14T06:11:46;94517.56;;;26.03;40.91
43217;BME280;60511;42.686;23.300;2023-06-14T06:13:47;94516.03;;;26.06;40.80
43217;BME280;60511;42.686;23.300;2023-06-14T06:15:47;94508.63;;;26.03;40.79
43217;BME280;60511;42.686;23.300;2023-06-14T06:17:47;94525.66;;;26.00;40.92
43217;BME280;60511;42.686;23.300;2023-06-14T06:19:48;94521.00;;;26.00;40.95
43217;BME280;60511;42.686;23.300;2023-06-14T06:21:48;94518.66;;;25.99;41.03
43217;BME280;60511;42.686;23.300;2023-06-14T06:23:48;94521.81;;;26.04;40.75
43217;BME280;60511;42.686;23.300;2023-06-14T06:25:49;94528.00;;;26.01;40.91
43217;BME280;60511;42.686;23.300;2023-06-14T06:27:49;94525.25;;;25.98;40.98
43217;BME280;60511;42.686;23.300;2023-06-14T06:29:49;94529.50;;;25.95;41.03
43217;BME280;60511;42.686;23.300;2023-06-14T06:31:51;94522.91;;;25.96;41.08
43217;BME280;60511;42.686;23.300;2023-06-14T06:33:51;94524.06;;;25.95;41.08
43217;BME280;60511;42.686;23.300;2023-06-14T06:35:53;94522.53;;;25.98;41.07
43217;BME280;60511;42.686;23.300;2023-06-14T06:37:54;94529.09;;;25.97;41.10
43217;BME280;60511;42.686;23.300;2023-06-14T06:39:54;94531.81;;;25.97;41.14
43217;BME280;60511;42.686;23.300;2023-06-14T06:41:54;94528.31;;;25.96;40.91
43217;BME280;60511;42.686;23.300;2023-06-14T06:43:54;94528.31;;;25.96;40.89
43217;BME280;60511;42.686;23.300;2023-06-14T06:45:55;94530.69;;;25.98;41.15
43217;BME280;60511;42.686;23.300;2023-06-14T06:47:55;94533.38;;;25.98;41.08
43217;BME280;60511;42.686;23.300;2023-06-14T06:49:55;94523.31;;;25.98;41.15
43217;BME280;60511;42.686;23.300;2023-06-14T06:52:00;94532.22;;;25.99;41.11
43217;BME280;60511;42.686;23.300;2023-06-14T06:54:01;94527.19;;;25.97;41.02
43217;BME280;60511;42.686;23.300;2023-06-14T06:56:01;94524.84;;;25.96;41.23
43217;BME280;60511;42.686;23.300;2023-06-14T06:58:01;94526.78;;;25.95;41.28
43217;BME280;60511;42.686;23.300;2023-06-14T07:00:04;94528.75;;;25.98;41.28
43217;BME280;60511;42.686;23.300;2023-06-14T07:02:09;94532.63;;;25.97;41.22
43217;BME280;60511;42.686;23.300;2023-06-14T07:04:09;94523.31;;;25.98;41.16
43217;BME280;60511;42.686;23.300;2023-06-14T07:06:10;94533.78;;;26.00;41.23
43217;BME280;60511;42.686;23.300;2023-06-14T07:08:10;94530.69;;;25.98;41.18
43217;BME280;60511;42.686;23.300;2023-06-14T07:10:10;94530.31;;;25.99;41.14
43217;BME280;60511;42.686;23.300;2023-06-14T07:12:11;94533.03;;;25.99;41.06
43217;BME280;60511;42.686;23.300;2023-06-14T07:14:11;94531.13;;;26.03;41.14
43217;BME280;60511;42.686;23.300;2023-06-14T07:16:12;94531.16;;;26.07;40.95
43217;BME280;60511;42.686;23.300;2023-06-14T07:18:12;94534.25;;;26.09;41.01
43217;BME280;60511;42.686;23.300;2023-06-14T07:20:13;94523.81;;;26.11;40.78
43217;BME280;60511;42.686;23.300;2023-06-14T07:22:13;94526.53;;;26.11;40.68
43217;BME280;60511;42.686;23.300;2023-06-14T07:24:14;94522.69;;;26.12;40.93
43217;BME280;60511;42.686;23.300;2023-06-14T07:26:14;94524.22;;;26.10;41.08
43217;BME280;60511;42.686;23.300;2023-06-14T07:28:15;94523.03;;;26.11;40.83
43217;BME280;60511;42.686;23.300;2023-06-14T07:30:16;94519.97;;;26.12;40.67
43217;BME280;60511;42.686;23.300;2023-06-14T07:32:16;94526.94;;;26.13;40.73
43217;BME280;60511;42.686;23.300;2023-06-14T07:34:16;94526.16;;;26.13;40.90
43217;BME280;60511;42.686;23.300;2023-06-14T07:36:17;94516.09;;;26.13;40.74
43217;BME280;60511;42.686;23.300;2023-06-14T07:38:17;94516.09;;;26.13;40.89
43217;BME280;60511;42.686;23.300;2023-06-14T07:40:18;94519.19;;;26.12;40.95
43217;BME280;60511;42.686;23.300;2023-06-14T07:42:18;94522.31;;;26.14;40.93
43217;BME280;60511;42.686;23.300;2023-06-14T07:44:18;94515.69;;;26.11;40.94
43217;BME280;60511;42.686;23.300;2023-06-14T07:46:18;94527.34;;;26.15;40.89
43217;BME280;60511;42.686;23.300;2023-06-14T07:48:19;94519.19;;;26.12;40.96
43217;BME280;60511;42.686;23.300;2023-06-14T07:50:19;94526.56;;;26.15;40.67
43217;BME280;60511;42.686;23.300;2023-06-14T07:52:19;94531.22;;;26.14;41.02
43217;BME280;60511;42.686;23.300;2023-06-14T07:54:20;94532.78;;;26.15;40.88
43217;BME280;60511;42.686;23.300;2023-06-14T07:56:24;94530.06;;;26.15;40.91
43217;BME280;60511;42.686;23.300;2023-06-14T07:58:25;94525.03;;;26.14;41.04
43217;BME280;60511;42.686;23.300;2023-06-14T08:00:26;94540.53;;;26.17;40.93
43217;BME280;60511;42.686;23.300;2023-06-14T08:02:26;94541.31;;;26.14;41.00
43217;BME280;60511;42.686;23.300;2023-06-14T08:04:26;94535.91;;;26.17;40.79
43217;BME280;60511;42.686;23.300;2023-06-14T08:06:27;94540.13;;;26.15;40.74
43217;BME280;60511;42.686;23.300;2023-06-14T08:08:27;94542.84;;;26.15;40.92
43217;BME280;60511;42.686;23.300;2023-06-14T08:10:27;94551.34;;;26.13;41.03
43217;BME280;60511;42.686;23.300;2023-06-14T08:12:28;94551.34;;;26.13;40.90
43217;BME280;60511;42.686;23.300;2023-06-14T08:14:28;94554.06;;;26.13;41.06
43217;BME280;60511;42.686;23.300;2023-06-14T08:16:29;94555.59;;;26.11;40.94
43217;BME280;60511;42.686;23.300;2023-06-14T08:18:29;94557.59;;;26.14;40.90
43217;BME280;60511;42.686;23.300;2023-06-14T08:20:30;94552.16;;;26.17;40.94
43217;BME280;60511;42.686;23.300;2023-06-14T08:22:31;94555.28;;;26.16;40.92
43217;BME280;60511;42.686;23.300;2023-06-14T08:24:34;94558.00;;;26.16;41.11
43217;BME280;60511;42.686;23.300;2023-06-14T08:26:34;94563.78;;;26.14;41.05
43217;BME280;60511;42.686;23.300;2023-06-14T08:28:36;94556.41;;;26.15;41.05
43217;BME280;60511;42.686;23.300;2023-06-14T08:30:37;94555.22;;;26.12;41.17
43217;BME280;60511;42.686;23.300;2023-06-14T08:32:37;94560.28;;;26.14;41.14
43217;BME280;60511;42.686;23.300;2023-06-14T08:34:37;94556.41;;;26.15;41.00
43217;BME280;60511;42.686;23.300;2023-06-14T08:36:37;94558.00;;;26.16;40.93
43217;BME280;60511;42.686;23.300;2023-06-14T08:38:38;94563.03;;;26.17;40.83
43217;BME280;60511;42.686;23.300;2023-06-14T08:40:39;94555.69;;;26.18;40.96
43217;BME280;60511;42.686;23.300;2023-06-14T08:42:39;94558.81;;;26.20;40.98
43217;BME280;60511;42.686;23.300;2023-06-14T08:44:40;94545.25;;;26.20;40.86
43217;BME280;60511;42.686;23.300;2023-06-14T08:46:41;94548.69;;;26.17;41.27
43217;BME280;60511;42.686;23.300;2023-06-14T08:48:41;94548.72;;;26.20;41.03
43217;BME280;60511;42.686;23.300;2023-06-14T08:50:43;94543.66;;;26.19;40.86
43217;BME280;60511;42.686;23.300;2023-06-14T08:52:43;94546.00;;;26.20;41.02
43217;BME280;60511;42.686;23.300;2023-06-14T08:54:49;94545.25;;;26.20;40.90
43217;BME280;60511;42.686;23.300;2023-06-14T08:56:50;94542.84;;;26.15;41.18
43217;BME280;60511;42.686;23.300;2023-06-14T08:58:52;94544.44;;;26.16;41.24
43217;BME280;60511;42.686;23.300;2023-06-14T09:00:52;94547.16;;;26.19;40.94
43217;BME280;60511;42.686;23.300;2023-06-14T09:02:53;94539.81;;;26.20;41.03
43217;BME280;60511;42.686;23.300;2023-06-14T09:04:57;94540.59;;;26.20;41.17
43217;BME280;60511;42.686;23.300;2023-06-14T09:06:59;94540.22;;;26.22;41.02
43217;BME280;60511;42.686;23.300;2023-06-14T09:09:00;94542.53;;;26.23;40.78
43217;BME280;60511;42.686;23.300;2023-06-14T09:11:04;94538.28;;;26.22;40.85
43217;BME280;60511;42.686;23.300;2023-06-14T09:13:05;94541.41;;;26.24;40.89
43217;BME280;60511;42.686;23.300;2023-06-14T09:15:05;94534.81;;;26.22;41.09
43217;BME280;60511;42.686;23.300;2023-06-14T09:17:08;94520.84;;;26.23;40.91
43217;BME280;60511;42.686;23.300;2023-06-14T09:19:08;94519.69;;;26.24;40.85
43217;BME280;60511;42.686;23.300;2023-06-14T09:21:14;94527.84;;;26.24;40.83
43217;BME280;60511;42.686;23.300;2023-06-14T09:23:17;94526.31;;;26.27;40.69
43217;BME280;60511;42.686;23.300;2023-06-14T09:25:20;94534.44;;;26.27;40.88
43217;BME280;60511;42.686;23.300;2023-06-14T09:27:20;94527.47;;;26.26;40.87
43217;BME280;60511;42.686;23.300;2023-06-14T09:29:21;94529.41;;;26.25;41.19
43217;BME280;60511;42.686;23.300;2023-06-14T09:31:21;94530.91;;;26.23;40.98
43217;BME280;60511;42.686;23.300;2023-06-14T09:33:25;94522.00;;;26.22;41.17
43217;BME280;60511;42.686;23.300;2023-06-14T09:35:25;94528.97;;;26.23;41.03
43217;BME280;60511;42.686;23.300;2023-06-14T09:37:28;94532.50;;;26.24;41.02
43217;BME280;60511;42.686;23.300;2023-06-14T09:39:29;94531.28;;;26.21;41.21
43217;BME280;60511;42.686;23.300;2023-06-14T09:41:30;94522.75;;;26.19;41.01
43217;BME280;60511;42.686;23.300;2023-06-14T09:43:31;94525.13;;;26.24;41.02
43217;BME280;60511;42.686;23.300;2023-06-14T09:45:34;94521.69;;;26.28;40.81
43217;BME280;60511;42.686;23.300;2023-06-14T09:47:34;94517.03;;;26.28;41.05
43217;BME280;60511;42.686;23.300;2023-06-14T09:49:34;94522.78;;;26.23;41.07
43217;BME280;60511;42.686;23.300;2023-06-14T09:51:35;94517.00;;;26.24;41.14
43217;BME280;60511;42.686;23.300;2023-06-14T09:53:37;94518.13;;;26.23;40.98
43217;BME280;60511;42.686;23.300;2023-06-14T09:55:40;94521.28;;;26.25;41.00
43217;BME280;60511;42.686;23.300;2023-06-14T09:57:41;94513.53;;;26.28;40.98
43217;BME280;60511;42.686;23.300;2023-06-14T09:59:43;94507.31;;;26.27;41.07
43217;BME280;60511;42.686;23.300;2023-06-14T10:01:44;94505.41;;;26.28;40.95
43217;BME280;60511;42.686;23.300;2023-06-14T10:03:45;94505.00;;;26.29;41.04
43217;BME280;60511;42.686;23.300;2023-06-14T10:05:46;94510.44;;;26.29;41.02
43217;BME280;60511;42.686;23.300;2023-06-14T10:07:48;94501.56;;;26.32;40.97
43217;BME280;60511;42.686;23.300;2023-06-14T10:09:52;94502.69;;;26.28;40.93
43217;BME280;60511;42.686;23.300;2023-06-14T10:11:53;94497.25;;;26.28;40.98
43217;BME280;60511;42.686;23.300;2023-06-14T10:13:54;94506.22;;;26.32;41.08
43217;BME280;60511;42.686;23.300;2023-06-14T10:22:34;94491.44;;;26.29;41.17
43217;BME280;60511;42.686;23.300;2023-06-14T10:24:42;94489.94;;;26.32;40.96
43217;BME280;60511;42.686;23.300;2023-06-14T10:26:53;94485.25;;;26.29;40.96
43217;BME280;60511;42.686;23.300;2023-06-14T10:29:15;94482.94;;;26.31;41.07
43217;BME280;60511;42.686;23.300;2023-06-14T10:31:14;94484.13;;;26.33;40.89
43217;BME280;60511;42.686;23.300;2023-06-14T10:33:15;94491.06;;;26.31;41.05
43217;BME280;60511;42.686;23.300;2023-06-14T10:35:15;94488.03;;;26.36;40.85
43217;BME280;60511;42.686;23.300;2023-06-14T10:37:16;94486.81;;;26.33;40.91
43217;BME280;60511;42.686;23.300;2023-06-14T10:39:17;94476.78;;;26.34;41.18
43217;BME280;60511;42.686;23.300;2023-06-14T10:41:17;94478.28;;;26.31;41.30
43217;BME280;60511;42.686;23.300;2023-06-14T10:43:21;94485.31;;;26.36;41.05